createdAt,value
2022-11-04T00:01:26.494Z,0.90
2022-11-04T00:03:55.143Z,0.80
2022-11-04T00:06:23.239Z,0.80
2022-11-04T00:08:53.000Z,0.90
2022-11-04T00:11:39.323Z,0.80
2022-11-04T00:14:08.652Z,1.00
2022-11-04T00:16:54.014Z,0.77
2022-11-04T00:22:07.147Z,0.82
2022-11-04T00:27:40.076Z,0.60
2022-11-04T00:30:10.545Z,0.80
2022-11-04T00:32:55.505Z,0.73
2022-11-04T00:35:23.556Z,0.90
2022-11-04T00:37:51.271Z,0.65
2022-11-04T00:40:20.623Z,1.00
2022-11-04T00:42:48.302Z,1.00
2022-11-04T00:45:16.236Z,1.00
2022-11-04T00:47:43.945Z,0.63
2022-11-04T00:50:11.629Z,1.00
2022-11-04T00:52:39.358Z,0.90
2022-11-04T00:55:08.218Z,0.90
2022-11-04T00:57:37.324Z,1.00
2022-11-04T01:00:05.946Z,1.00
2022-11-04T01:02:33.799Z,0.82
2022-11-04T01:05:01.788Z,0.90
2022-11-04T01:07:29.546Z,1.20
2022-11-04T01:09:57.283Z,1.10
2022-11-04T01:12:25.010Z,1.10
2022-11-04T01:14:54.426Z,1.20
2022-11-04T01:17:22.143Z,1.20
2022-11-04T01:19:49.861Z,1.05
2022-11-04T01:22:17.619Z,1.13
2022-11-04T01:24:45.298Z,1.13
2022-11-04T01:27:13.081Z,1.10
2022-11-04T01:29:40.839Z,1.10
2022-11-04T01:32:10.018Z,1.00
2022-11-04T01:34:42.386Z,1.10
2022-11-04T01:37:11.760Z,1.30
2022-11-04T01:39:39.519Z,1.23
2022-11-04T01:42:07.325Z,1.20
2022-11-04T01:44:49.915Z,1.20
2022-11-04T01:47:21.226Z,1.02
2022-11-04T01:49:51.578Z,1.15
2022-11-04T01:52:26.607Z,1.00
2022-11-04T01:54:58.422Z,1.13
2022-11-04T01:57:33.800Z,1.23
2022-11-04T02:00:04.071Z,1.30
2022-11-04T02:02:50.891Z,1.10
2022-11-04T02:05:19.623Z,0.88
2022-11-04T02:07:51.998Z,1.27
2022-11-04T02:10:23.377Z,1.10
2022-11-04T02:12:50.569Z,1.08
2022-11-04T02:15:24.531Z,1.02
2022-11-04T02:18:14.252Z,1.08
2022-11-04T02:21:20.387Z,1.10
2022-11-04T02:24:05.764Z,1.10
2022-11-04T02:29:41.888Z,1.20
2022-11-04T02:32:20.567Z,1.15
2022-11-04T02:35:01.075Z,1.20
2022-11-04T02:37:37.348Z,1.00
2022-11-04T02:40:17.646Z,1.13
2022-11-04T02:42:54.571Z,1.38
2022-11-04T02:45:31.117Z,1.70
2022-11-04T02:48:03.790Z,1.00
2022-11-04T02:50:36.385Z,1.00
2022-11-04T02:53:11.802Z,1.25
2022-11-04T02:55:44.120Z,1.35
2022-11-04T02:58:17.276Z,1.23
2022-11-04T03:00:48.840Z,1.33
2022-11-04T03:03:20.802Z,1.30
2022-11-04T03:05:53.748Z,1.05
2022-11-04T03:08:27.445Z,1.20
2022-11-04T03:11:00.208Z,1.20
2022-11-04T03:13:33.375Z,1.00
2022-11-04T03:16:09.083Z,1.20
2022-11-04T03:21:12.261Z,0.85
2022-11-04T03:23:40.903Z,1.13
2022-11-04T03:26:16.044Z,1.08
2022-11-04T03:28:51.082Z,1.63
2022-11-04T03:31:24.836Z,1.27
2022-11-04T03:33:54.775Z,1.58
2022-11-04T03:36:24.027Z,1.30
2022-11-04T03:38:52.393Z,1.20
2022-11-04T03:41:28.796Z,2.20
2022-11-04T03:43:56.529Z,1.35
2022-11-04T03:46:25.706Z,1.23
2022-11-04T03:48:54.226Z,1.70
2022-11-04T03:51:21.893Z,1.50
2022-11-04T03:53:50.088Z,1.60
2022-11-04T03:56:44.277Z,1.02
2022-11-04T03:59:25.526Z,1.20
2022-11-04T04:01:58.183Z,1.08
2022-11-04T04:04:30.630Z,1.40
2022-11-04T04:07:04.440Z,1.23
2022-11-04T04:09:39.071Z,1.27
2022-11-04T04:12:14.987Z,1.15
2022-11-04T04:14:46.548Z,1.20
2022-11-04T04:17:21.318Z,1.13
2022-11-04T04:19:54.997Z,1.45
2022-11-04T04:22:26.194Z,1.30
2022-11-04T04:25:15.563Z,1.30
2022-11-04T04:27:45.089Z,1.25
2022-11-04T04:30:15.366Z,1.20
2022-11-04T04:32:47.015Z,1.38
2022-11-04T04:35:33.118Z,1.55
2022-11-04T04:38:19.018Z,1.40
2022-11-04T04:41:09.513Z,1.67
2022-11-04T04:43:57.238Z,1.50
2022-11-04T04:46:25.711Z,1.23
2022-11-04T04:48:54.754Z,1.42
2022-11-04T04:51:22.997Z,1.45
2022-11-04T04:53:50.781Z,1.65
2022-11-04T04:56:18.487Z,1.67
2022-11-04T04:58:46.186Z,1.70
2022-11-04T05:01:13.993Z,1.40
2022-11-04T05:03:45.098Z,1.50
2022-11-04T05:06:14.523Z,1.40
2022-11-04T05:08:42.210Z,1.38
2022-11-04T05:11:09.989Z,1.33
2022-11-04T05:13:37.946Z,1.63
2022-11-04T05:16:07.460Z,1.65
2022-11-04T05:18:35.527Z,1.63
2022-11-04T05:21:05.005Z,1.75
2022-11-04T05:23:35.770Z,1.70
2022-11-04T05:26:03.584Z,1.70
2022-11-04T05:28:31.287Z,1.70
2022-11-04T05:31:03.125Z,1.52
2022-11-04T05:33:30.989Z,2.00
2022-11-04T05:36:06.930Z,2.08
2022-11-04T05:38:36.188Z,1.55
2022-11-04T05:41:04.133Z,1.88
2022-11-04T05:43:32.480Z,1.90
2022-11-04T05:46:00.687Z,1.98
2022-11-04T05:48:28.577Z,2.22
2022-11-04T05:50:56.746Z,1.98
2022-11-04T05:53:24.641Z,1.73
2022-11-04T05:55:53.743Z,1.70
2022-11-04T05:58:21.878Z,2.00
2022-11-04T06:00:49.660Z,1.70
2022-11-04T06:03:17.438Z,1.70
2022-11-04T06:05:45.236Z,2.42
2022-11-04T06:08:13.005Z,2.67
2022-11-04T06:10:40.723Z,1.90
2022-11-04T06:13:09.815Z,2.33
2022-11-04T06:15:37.645Z,2.67
2022-11-04T06:18:05.458Z,2.78
2022-11-04T06:20:33.311Z,2.20
2022-11-04T06:23:00.973Z,2.80
2022-11-04T06:25:31.058Z,3.08
2022-11-04T06:27:59.219Z,1.92
2022-11-04T06:30:28.320Z,2.10
2022-11-04T06:32:56.060Z,1.77
2022-11-04T06:35:23.879Z,1.67
2022-11-04T06:37:51.580Z,2.13
2022-11-04T06:40:19.296Z,1.30
2022-11-04T06:42:47.244Z,1.50
2022-11-04T06:45:15.069Z,2.42
2022-11-04T06:47:44.134Z,1.55
2022-11-04T06:50:13.227Z,1.67
2022-11-04T06:52:42.603Z,1.60
2022-11-04T06:55:11.481Z,1.90
2022-11-04T06:57:39.179Z,1.77
2022-11-04T07:00:08.277Z,1.85
2022-11-04T07:02:36.496Z,1.60
2022-11-04T07:05:06.761Z,1.80
2022-11-04T07:07:34.808Z,1.90
2022-11-04T07:10:02.546Z,1.90
2022-11-04T07:12:30.269Z,2.15
2022-11-04T07:14:57.958Z,2.00
2022-11-04T07:17:25.712Z,2.20
2022-11-04T07:19:53.590Z,2.10
2022-11-04T07:22:23.068Z,1.65
2022-11-04T07:24:50.803Z,1.55
2022-11-04T07:27:18.551Z,1.95
2022-11-04T07:29:46.243Z,1.75
2022-11-04T07:32:14.294Z,2.05
2022-11-04T07:34:42.187Z,2.20
2022-11-04T07:37:09.865Z,2.20
2022-11-04T07:39:39.114Z,1.75
2022-11-04T07:42:08.712Z,2.38
2022-11-04T07:44:36.449Z,2.10
2022-11-04T07:47:04.186Z,2.10
2022-11-04T07:49:32.115Z,2.10
2022-11-04T07:51:59.963Z,2.10
2022-11-04T07:54:28.779Z,1.80
2022-11-04T07:56:58.740Z,2.10
2022-11-04T07:59:26.577Z,2.30
2022-11-04T08:01:54.351Z,2.20
2022-11-04T08:04:22.172Z,2.20
2022-11-04T08:06:49.889Z,2.25
2022-11-04T08:09:17.706Z,2.03
2022-11-04T08:11:45.482Z,1.80
2022-11-04T08:14:14.499Z,2.35
2022-11-04T08:16:42.358Z,2.08
2022-11-04T08:19:10.286Z,3.03
2022-11-04T08:21:38.015Z,2.38
2022-11-04T08:24:06.204Z,2.25
2022-11-04T08:26:34.416Z,2.40
2022-11-04T08:29:02.562Z,2.13
2022-11-04T08:31:33.654Z,5.40
2022-11-04T08:34:02.261Z,2.47
2022-11-04T08:36:31.967Z,2.13
2022-11-04T08:39:03.243Z,2.17
2022-11-04T08:41:34.872Z,1.95
2022-11-04T08:44:04.185Z,1.80
2022-11-04T08:46:36.637Z,2.38
2022-11-04T08:49:09.901Z,2.40
2022-11-04T08:51:41.032Z,2.07
2022-11-04T08:54:08.763Z,1.80
2022-11-04T08:56:38.843Z,2.13
2022-11-04T08:59:08.340Z,2.10
2022-11-04T09:01:38.725Z,2.40
2022-11-04T09:04:06.985Z,2.08
2022-11-04T09:06:37.929Z,2.55
2022-11-04T09:09:07.473Z,2.15
2022-11-04T09:11:39.151Z,2.05
2022-11-04T09:14:07.239Z,2.47
2022-11-04T09:16:38.295Z,2.28
2022-11-04T09:19:07.112Z,2.28
2022-11-04T09:21:34.924Z,2.13
2022-11-04T09:24:02.688Z,2.42
2022-11-04T09:26:30.775Z,2.25
2022-11-04T09:29:00.160Z,1.85
2022-11-04T09:31:31.127Z,2.00
2022-11-04T09:34:00.195Z,2.28
2022-11-04T09:36:29.044Z,1.65
2022-11-04T09:38:56.965Z,1.85
2022-11-04T09:41:55.486Z,1.55
2022-11-04T09:44:28.124Z,1.77
2022-11-04T09:47:00.086Z,2.08
2022-11-04T09:49:34.860Z,1.55
2022-11-04T09:52:08.513Z,2.10
2022-11-04T09:54:46.997Z,1.40
2022-11-04T09:57:19.339Z,1.70
2022-11-04T09:59:48.206Z,1.80
2022-11-04T10:02:41.889Z,1.70
2022-11-04T10:05:24.126Z,1.60
2022-11-04T10:08:06.052Z,1.70
2022-11-04T10:10:45.880Z,2.10
2022-11-04T10:13:23.474Z,1.80
2022-11-04T10:16:08.170Z,1.90
2022-11-04T10:18:52.638Z,2.08
2022-11-04T10:21:41.848Z,1.75
2022-11-04T10:24:19.949Z,2.28
2022-11-04T10:26:54.828Z,1.60
2022-11-04T10:29:32.051Z,1.88
2022-11-04T10:32:02.929Z,1.50
2022-11-04T10:34:37.849Z,1.50
2022-11-04T10:37:11.684Z,1.92
2022-11-04T10:39:44.868Z,1.10
2022-11-04T10:42:14.148Z,1.92
2022-11-04T10:44:42.040Z,1.55
2022-11-04T10:47:23.608Z,1.40
2022-11-04T10:50:31.352Z,1.40
2022-11-04T10:52:57.220Z,1.30
2022-11-04T10:55:36.675Z,1.85
2022-11-04T10:58:04.910Z,1.35
2022-11-04T11:00:38.070Z,1.40
2022-11-04T11:03:24.914Z,1.20
2022-11-04T11:05:53.429Z,1.40
2022-11-04T11:08:37.193Z,1.00
2022-11-04T11:11:07.819Z,1.20
2022-11-04T11:13:38.422Z,1.10
2022-11-04T11:16:09.436Z,1.10
2022-11-04T11:18:38.446Z,1.10
2022-11-04T11:21:10.690Z,2.28
2022-11-04T11:23:46.606Z,1.30
2022-11-04T11:26:17.652Z,1.35
2022-11-04T11:28:57.437Z,1.15
2022-11-04T11:31:27.372Z,1.20
2022-11-04T11:33:58.847Z,1.13
2022-11-04T11:36:29.481Z,1.23
2022-11-04T11:39:05.791Z,1.52
2022-11-04T11:41:39.549Z,1.20
2022-11-04T11:44:21.090Z,1.27
2022-11-04T11:46:54.647Z,1.10
2022-11-04T11:49:28.945Z,0.95
2022-11-04T11:51:57.054Z,0.82
2022-11-04T11:54:33.356Z,0.80
2022-11-04T11:57:14.577Z,0.65
2022-11-04T12:02:48.621Z,0.90
2022-11-04T12:11:17.172Z,2.35
2022-11-04T12:13:49.668Z,1.52
2022-11-04T12:16:28.156Z,0.80
2022-11-04T12:19:17.083Z,0.88
2022-11-04T12:21:49.695Z,0.88
2022-11-04T12:24:29.474Z,1.00
2022-11-04T12:27:12.880Z,1.00
2022-11-04T12:29:55.450Z,1.00
2022-11-04T12:32:32.304Z,1.00
2022-11-04T12:35:12.054Z,0.95
2022-11-04T12:37:52.694Z,1.05
2022-11-04T12:40:23.106Z,1.52
2022-11-04T12:43:14.173Z,1.00
2022-11-04T12:45:56.721Z,0.88
2022-11-04T12:48:37.057Z,1.05
2022-11-04T12:51:10.626Z,1.10
2022-11-04T12:53:58.172Z,1.08
2022-11-04T12:56:37.505Z,1.15
2022-11-04T12:59:38.971Z,1.30
2022-11-04T13:02:18.027Z,1.30
2022-11-04T13:04:54.390Z,1.52
2022-11-04T13:07:30.582Z,1.73
2022-11-04T13:10:02.457Z,1.60
2022-11-04T13:12:36.251Z,1.67
2022-11-04T13:15:15.306Z,1.63
2022-11-04T13:17:46.064Z,1.90
2022-11-04T13:20:23.403Z,1.75
2022-11-04T13:22:57.762Z,2.45
2022-11-04T13:25:31.920Z,1.95
2022-11-04T13:28:01.736Z,2.25
2022-11-04T13:30:37.916Z,1.95
2022-11-04T13:33:14.647Z,3.40
2022-11-04T13:35:50.965Z,2.58
2022-11-04T13:38:23.720Z,2.33
2022-11-04T13:41:11.442Z,2.13
2022-11-04T13:43:49.274Z,2.78
2022-11-04T13:46:24.759Z,2.10
2022-11-04T13:51:35.482Z,2.13
2022-11-04T13:54:04.014Z,2.17
2022-11-04T13:56:35.355Z,2.67
2022-11-04T13:59:08.544Z,3.03
2022-11-04T14:01:37.747Z,2.40
2022-11-04T14:04:36.912Z,2.30
2022-11-04T14:07:06.185Z,2.25
2022-11-04T14:09:50.182Z,2.15
2022-11-04T14:12:36.811Z,2.03
2022-11-04T14:15:18.175Z,2.10
2022-11-04T14:18:06.788Z,2.42
2022-11-04T14:20:38.043Z,2.40
2022-11-04T14:23:08.776Z,2.88
2022-11-04T14:25:41.231Z,2.60
2022-11-04T14:28:26.749Z,2.85
2022-11-04T14:30:56.292Z,2.40
2022-11-04T14:33:45.232Z,2.40
2022-11-04T14:36:25.656Z,1.88
2022-11-04T14:38:57.540Z,1.60
2022-11-04T14:41:46.507Z,2.10
2022-11-04T14:44:21.303Z,2.00
2022-11-04T14:46:52.455Z,2.10
2022-11-04T14:49:38.435Z,2.85
2022-11-04T14:52:08.211Z,2.85
2022-11-04T14:54:38.261Z,2.70
2022-11-04T14:57:14.958Z,2.97
2022-11-04T14:59:43.147Z,2.40
2022-11-04T15:02:16.287Z,2.55
2022-11-04T15:04:52.907Z,2.85
2022-11-04T15:07:41.689Z,2.78
2022-11-04T15:10:21.675Z,2.70
2022-11-04T15:12:54.463Z,2.35
2022-11-04T15:15:41.550Z,3.58
2022-11-04T15:18:15.020Z,3.00
2022-11-04T15:20:48.927Z,3.60
2022-11-04T15:23:19.148Z,3.10
2022-11-04T15:25:49.035Z,2.58
2022-11-04T15:28:21.128Z,2.00
2022-11-04T15:31:06.414Z,2.17
2022-11-04T15:33:40.012Z,2.20
2022-11-04T15:36:15.719Z,2.17
2022-11-04T15:38:50.250Z,2.00
2022-11-04T15:41:39.180Z,2.00
2022-11-04T15:44:16.258Z,2.63
2022-11-04T15:46:49.746Z,2.30
2022-11-04T15:49:24.135Z,2.40
2022-11-04T15:51:55.751Z,2.20
2022-11-04T15:54:26.830Z,2.50
2022-11-04T15:56:57.349Z,2.53
2022-11-04T15:59:29.109Z,2.50
2022-11-04T16:01:57.082Z,3.00
2022-11-04T16:04:27.327Z,2.30
2022-11-04T16:07:21.401Z,2.30
2022-11-04T16:09:51.593Z,2.50
2022-11-04T16:12:27.937Z,2.70
2022-11-04T16:14:56.914Z,4.45
2022-11-04T16:17:25.847Z,4.57
2022-11-04T16:19:55.984Z,3.67
2022-11-04T16:22:30.580Z,3.17
2022-11-04T16:25:00.004Z,2.72
2022-11-04T16:27:29.024Z,3.08
2022-11-04T16:30:08.360Z,3.25
2022-11-04T16:32:43.459Z,3.00
2022-11-04T16:35:18.079Z,3.15
2022-11-04T16:37:47.549Z,3.20
2022-11-04T16:40:15.835Z,2.90
2022-11-04T16:42:44.760Z,3.20
2022-11-04T16:45:24.725Z,4.15
2022-11-04T16:47:53.474Z,3.50
2022-11-04T16:50:21.539Z,3.60
2022-11-04T16:52:51.416Z,3.55
2022-11-04T16:55:19.879Z,3.38
2022-11-04T16:57:50.599Z,3.88
2022-11-04T17:00:20.888Z,3.25
2022-11-04T17:02:49.537Z,3.85
2022-11-04T17:05:17.912Z,4.78
2022-11-04T17:07:53.604Z,4.35
2022-11-04T17:10:27.783Z,4.10
2022-11-04T17:12:55.539Z,4.32
2022-11-04T17:15:23.405Z,4.20
2022-11-04T17:17:51.426Z,4.30
2022-11-04T17:20:20.200Z,6.75
2022-11-04T17:22:48.859Z,6.85
2022-11-04T17:25:19.250Z,7.20
2022-11-04T17:27:48.724Z,7.50
2022-11-04T17:30:17.547Z,8.80
2022-11-04T17:32:46.352Z,12.63
2022-11-04T17:35:15.057Z,9.20
2022-11-04T17:37:42.907Z,8.07
2022-11-04T17:40:14.839Z,7.85
2022-11-04T17:43:00.190Z,6.38
2022-11-04T17:47:57.021Z,6.78
2022-11-04T17:50:24.930Z,7.10
2022-11-04T17:52:52.688Z,6.63
2022-11-04T17:55:26.155Z,6.53
2022-11-04T17:57:55.423Z,7.23
2022-11-04T18:00:25.899Z,7.78
2022-11-04T18:02:55.408Z,7.65
2022-11-04T18:05:23.208Z,8.15
2022-11-04T18:07:53.687Z,8.23
2022-11-04T18:10:21.513Z,7.28
2022-11-04T18:12:48.243Z,7.75
2022-11-04T18:15:17.697Z,7.68
2022-11-04T18:17:46.126Z,7.50
2022-11-04T18:20:16.959Z,8.00
2022-11-04T18:22:45.168Z,7.93
2022-11-04T18:25:13.458Z,8.50
2022-11-04T18:27:41.319Z,8.43
2022-11-04T18:30:10.159Z,7.70
2022-11-04T18:32:37.970Z,8.30
2022-11-04T18:35:06.510Z,7.50
2022-11-04T18:37:35.576Z,8.05
2022-11-04T18:40:03.317Z,8.00
2022-11-04T18:42:31.031Z,12.45
2022-11-04T18:44:58.736Z,11.35
2022-11-04T18:47:26.955Z,9.75
2022-11-04T18:49:54.777Z,10.52
2022-11-04T18:52:22.851Z,13.48
2022-11-04T18:54:51.946Z,11.45
2022-11-04T18:57:19.666Z,11.02
2022-11-04T18:59:47.359Z,12.10
2022-11-04T19:02:20.214Z,10.60
2022-11-04T19:04:47.974Z,12.02
2022-11-04T19:07:15.752Z,10.63
2022-11-04T19:09:47.796Z,10.43
2022-11-04T19:12:31.340Z,10.88
2022-11-04T19:14:58.998Z,9.90
2022-11-04T19:17:26.747Z,11.52
2022-11-04T19:19:54.476Z,11.90
2022-11-04T19:22:22.184Z,11.38
2022-11-04T19:24:49.904Z,10.57
2022-11-04T19:27:21.438Z,10.82
2022-11-04T19:29:49.470Z,10.35
2022-11-04T19:32:17.323Z,10.07
2022-11-04T19:34:45.577Z,12.15
2022-11-04T19:37:13.927Z,10.13
2022-11-04T19:39:41.643Z,10.07
2022-11-04T19:42:28.345Z,12.23
2022-11-04T19:44:57.449Z,10.38
2022-11-04T19:47:25.326Z,10.93
2022-11-04T19:49:53.071Z,11.05
2022-11-04T19:52:20.788Z,10.48
2022-11-04T19:54:48.548Z,10.05
2022-11-04T19:57:16.432Z,9.75
2022-11-04T19:59:44.209Z,9.85
2022-11-04T20:02:15.246Z,8.93
2022-11-04T20:04:43.105Z,9.65
2022-11-04T20:07:10.928Z,10.20
2022-11-04T20:09:39.345Z,9.93
2022-11-04T20:12:24.737Z,12.07
2022-11-04T20:17:24.992Z,12.07
2022-11-04T20:19:52.813Z,13.13
2022-11-04T20:22:20.571Z,12.30
2022-11-04T20:24:48.448Z,14.30
2022-11-04T20:27:16.343Z,14.32
2022-11-04T20:29:44.395Z,15.43
2022-11-04T20:32:12.190Z,14.55
2022-11-04T20:34:41.472Z,15.27
2022-11-04T20:37:09.538Z,16.35
2022-11-04T20:39:37.333Z,16.60
2022-11-04T20:42:05.557Z,16.45
2022-11-04T20:44:33.667Z,16.23
2022-11-04T20:47:01.397Z,14.65
2022-11-04T20:49:29.793Z,13.57
2022-11-04T20:51:59.253Z,14.23
2022-11-04T20:54:27.147Z,13.48
2022-11-04T20:56:54.984Z,11.82
2022-11-04T20:59:22.698Z,12.40
2022-11-04T21:01:50.824Z,13.38
2022-11-04T21:04:21.360Z,12.43
2022-11-04T21:06:51.129Z,12.20
2022-11-04T21:09:22.235Z,12.88
2022-11-04T21:11:51.217Z,13.38
2022-11-04T21:14:20.186Z,13.00
2022-11-04T21:16:48.308Z,12.07
2022-11-04T21:19:17.014Z,12.88
2022-11-04T21:21:46.972Z,12.68
2022-11-04T21:24:16.383Z,12.63
2022-11-04T21:26:46.566Z,11.52
2022-11-04T21:29:16.971Z,11.77
2022-11-04T21:31:45.438Z,11.25
2022-11-04T21:34:13.672Z,11.63
2022-11-04T21:36:42.266Z,11.20
2022-11-04T21:39:11.307Z,11.57
2022-11-04T21:41:39.072Z,11.95
2022-11-04T21:44:09.470Z,11.50
2022-11-04T21:46:37.705Z,12.43
2022-11-04T21:49:05.933Z,13.40
2022-11-04T21:51:35.266Z,13.15
2022-11-04T21:54:06.143Z,14.15
2022-11-04T21:56:34.020Z,15.98
2022-11-04T21:59:02.394Z,16.35
2022-11-04T22:01:32.700Z,16.77
2022-11-04T22:04:02.247Z,17.83
2022-11-04T22:06:34.627Z,17.77
2022-11-04T22:09:05.162Z,18.42
2022-11-04T22:11:36.319Z,18.05
2022-11-04T22:14:07.292Z,17.83
2022-11-04T22:16:38.585Z,18.00
2022-11-04T22:19:08.526Z,17.65
2022-11-04T22:21:40.044Z,19.05
2022-11-04T22:24:10.082Z,18.00
2022-11-04T22:26:38.844Z,19.15
2022-11-04T22:29:06.906Z,17.45
2022-11-04T22:31:38.640Z,19.40
2022-11-04T22:34:06.664Z,18.50
2022-11-04T22:36:35.259Z,17.98
2022-11-04T22:39:03.256Z,19.67
2022-11-04T22:41:33.161Z,19.20
2022-11-04T22:44:01.171Z,19.65
2022-11-04T22:46:31.240Z,19.17
2022-11-04T22:49:00.491Z,21.23
2022-11-04T22:51:29.593Z,21.00
2022-11-04T22:54:02.883Z,20.83
2022-11-04T22:56:34.763Z,20.38
2022-11-04T22:59:02.532Z,20.88
2022-11-04T23:01:31.602Z,20.00
2022-11-04T23:04:01.033Z,19.65
2022-11-04T23:06:29.518Z,20.30
2022-11-04T23:09:00.346Z,18.40
2022-11-04T23:11:47.497Z,19.08
2022-11-04T23:14:49.761Z,19.40
2022-11-04T23:17:37.024Z,18.27
2022-11-04T23:20:10.115Z,18.75
2022-11-04T23:22:55.486Z,17.15
2022-11-04T23:28:21.872Z,13.30
2022-11-04T23:30:53.058Z,13.27
2022-11-04T23:33:41.657Z,12.98
2022-11-04T23:36:28.313Z,13.15
2022-11-04T23:38:56.108Z,12.23
2022-11-04T23:41:41.304Z,12.00
2022-11-04T23:44:29.142Z,12.43
2022-11-04T23:47:14.858Z,11.30
2022-11-04T23:50:00.991Z,11.77
2022-11-04T23:52:47.444Z,11.75
2022-11-04T23:55:33.241Z,11.95
2022-11-04T23:58:18.531Z,12.88
